Time;durP1;ratioP1;P1;durP2;ratioP2;P2;SDS_P1;SDS_P2;PMS_P1;PMS_P2;Temp;Humidity;BMP_temperature;BMP_pressure;BME280_temperature;BME280_humidity;BME280_pressure;Samples;Min_cycle;Max_cycle;Signal;HPM_P1;HPM_P2
2022/06/18 00:00:56;;;;;;;6.80;2.97;;;21.20;99.90;;;;;;5065426;28;20360;-71
2022/06/18 00:03:24;;;;;;;6.53;3.65;;;21.20;99.90;;;;;;5069826;28;20036;-71
2022/06/18 00:05:54;;;;;;;4.35;2.97;;;21.20;99.90;;;;;;5060672;28;20043;-71
2022/06/18 00:08:29;;;;;;;6.03;3.13;;;21.20;99.90;;;;;;5059599;28;20071;-71
2022/06/18 00:13:39;;;;;;;5.35;3.15;;;21.20;99.90;;;;;;5056980;28;20033;-74
2022/06/18 00:13:46;;;;;;;5.35;2.83;;;21.10;99.90;;;;;;5058171;28;20078;-71
2022/06/18 00:16:19;;;;;;;7.05;3.85;;;21.10;99.90;;;;;;5058881;28;20059;-72
2022/06/18 00:18:45;;;;;;;5.05;2.97;;;21.10;99.90;;;;;;5068780;28;20880;-72
2022/06/18 00:21:16;;;;;;;4.68;3.10;;;21.10;99.90;;;;;;5066529;28;20202;-71
2022/06/18 00:23:42;;;;;;;3.65;2.83;;;21.10;99.90;;;;;;5055067;28;24389;-71
2022/06/18 00:26:08;;;;;;;;;;;21.10;99.90;;;;;;5041930;28;20029;-71
2022/06/18 00:28:34;;;;;;;6.50;3.40;;;21.00;99.90;;;;;;5063541;28;19916;-71
2022/06/18 00:30:59;;;;;;;;;;;21.00;99.90;;;;;;5057791;28;20040;-72
2022/06/18 00:33:26;;;;;;;7.20;3.45;;;21.00;99.90;;;;;;5061254;28;19927;-71
2022/06/18 00:35:56;;;;;;;5.35;3.40;;;21.00;99.90;;;;;;5055427;28;21016;-71
2022/06/18 00:38:32;;;;;;;5.82;3.50;;;21.00;99.90;;;;;;5050677;28;20953;-71
2022/06/18 00:40:58;;;;;;;7.13;3.85;;;20.90;99.90;;;;;;5054994;28;20044;-71
2022/06/18 00:43:39;;;;;;;5.65;4.10;;;20.90;99.90;;;;;;5065350;28;20131;-71
2022/06/18 00:46:40;;;;;;;5.95;3.90;;;20.90;99.90;;;;;;5061930;28;20427;-71
2022/06/18 00:50:07;;;;;;;8.50;4.10;;;20.80;99.90;;;;;;5053762;28;24425;-72
2022/06/18 00:52:40;;;;;;;5.30;3.92;;;20.80;99.90;;;;;;4996322;28;20060;-71
2022/06/18 00:55:22;;;;;;;7.30;4.78;;;20.80;99.90;;;;;;5053995;28;20079;-71
2022/06/18 00:58:18;;;;;;;6.50;4.88;;;20.90;99.90;;;;;;5062384;28;20044;-71
2022/06/18 01:00:46;;;;;;;7.45;4.55;;;20.80;99.90;;;;;;5062843;28;20063;-71
2022/06/18 01:03:31;;;;;;;7.75;5.40;;;20.70;99.90;;;;;;5065513;28;20043;-74
2022/06/18 01:06:02;;;;;;;5.10;4.10;;;20.70;99.90;;;;;;5044234;28;21107;-72
2022/06/18 01:08:31;;;;;;;7.07;4.45;;;20.70;99.90;;;;;;5055372;28;20671;-72
2022/06/18 01:11:00;;;;;;;9.32;4.60;;;20.60;99.90;;;;;;5052969;28;20068;-72
2022/06/18 01:13:31;;;;;;;7.53;4.78;;;20.60;99.90;;;;;;5057982;28;20041;-72
2022/06/18 01:15:57;;;;;;;9.85;4.70;;;20.60;99.90;;;;;;5056680;28;20036;-72
2022/06/18 01:18:24;;;;;;;9.45;5.53;;;20.60;99.90;;;;;;5053815;28;20041;-72
2022/06/18 01:20:53;;;;;;;7.15;4.45;;;20.60;99.90;;;;;;5061571;28;20044;-72
2022/06/18 01:23:26;;;;;;;8.45;4.53;;;20.50;99.90;;;;;;5058167;28;20128;-72
2022/06/18 01:25:55;;;;;;;10.77;5.20;;;20.50;99.90;;;;;;5054138;28;20493;-71
2022/06/18 01:28:22;;;;;;;6.50;4.75;;;20.50;99.90;;;;;;5058879;28;20036;-72
2022/06/18 01:30:48;;;;;;;7.15;5.10;;;20.40;99.90;;;;;;5058742;28;20053;-72
2022/06/18 01:33:14;;;;;;;7.45;4.57;;;20.40;99.90;;;;;;5063538;28;20067;-72
2022/06/18 01:35:43;;;;;;;8.75;4.50;;;20.40;99.90;;;;;;5028465;28;20946;-72
2022/06/18 01:38:11;;;;;;;7.28;4.82;;;20.40;99.90;;;;;;5053964;28;20747;-72
2022/06/18 01:40:40;;;;;;;6.15;4.63;;;20.40;99.90;;;;;;5060029;28;21168;-72
2022/06/18 01:43:07;;;;;;;11.60;5.90;;;20.30;99.90;;;;;;5057799;28;20517;-71
2022/06/18 01:45:36;;;;;;;7.07;4.97;;;20.30;99.90;;;;;;5065248;28;20405;-72
2022/06/18 01:48:24;;;;;;;9.93;5.40;;;20.20;99.90;;;;;;5053353;28;20056;-71
2022/06/18 01:50:57;;;;;;;9.48;6.13;;;20.30;99.90;;;;;;5061154;28;20051;-71
2022/06/18 01:53:33;;;;;;;9.10;5.78;;;20.20;99.90;;;;;;5065020;28;20046;-72
2022/06/18 01:56:07;;;;;;;8.02;5.15;;;20.20;99.90;;;;;;5055198;28;20045;-72
2022/06/18 01:58:47;;;;;;;15.45;6.03;;;20.10;99.90;;;;;;5061695;28;20049;-72
2022/06/18 02:01:21;;;;;;;7.57;5.57;;;20.10;99.90;;;;;;5050896;28;20049;-72
2022/06/18 02:03:47;;;;;;;11.07;5.93;;;20.10;99.90;;;;;;5064604;28;20050;-71
2022/06/18 02:06:13;;;;;;;13.80;7.10;;;20.00;99.90;;;;;;5052555;28;20513;-71
2022/06/18 02:08:41;;;;;;;10.48;6.97;;;20.00;99.90;;;;;;5051967;28;20304;-71
2022/06/18 02:11:08;;;;;;;8.75;6.40;;;19.90;99.90;;;;;;5045157;28;20111;-71
2022/06/18 02:13:42;;;;;;;12.00;6.78;;;19.90;99.90;;;;;;5063265;28;20079;-71
2022/06/18 02:16:15;;;;;;;9.13;6.35;;;19.90;99.90;;;;;;5060102;28;20493;-72
2022/06/18 02:18:43;;;;;;;10.38;6.50;;;19.80;99.90;;;;;;5049863;28;20044;-71
2022/06/18 02:21:11;;;;;;;7.60;5.40;;;19.70;99.90;;;;;;5057636;28;20060;-71
2022/06/18 02:23:37;;;;;;;10.73;5.70;;;19.70;99.90;;;;;;5061292;28;20478;-72
2022/06/18 02:26:06;;;;;;;14.70;6.10;;;19.70;99.90;;;;;;5058973;28;20067;-71
2022/06/18 02:28:38;;;;;;;13.73;6.93;;;19.60;99.90;;;;;;5063082;28;20051;-71
2022/06/18 02:31:04;;;;;;;13.98;6.55;;;19.50;99.90;;;;;;5060631;28;20178;-71
2022/06/18 02:33:51;;;;;;;18.00;7.53;;;19.60;99.90;;;;;;5062244;28;20068;-71
2022/06/18 02:36:37;;;;;;;10.65;7.20;;;19.50;99.90;;;;;;5042269;28;21228;-71
2022/06/18 02:39:27;;;;;;;13.98;7.30;;;19.50;99.90;;;;;;5048027;28;20992;-71
2022/06/18 02:41:59;;;;;;;11.02;7.25;;;19.40;99.90;;;;;;5065017;28;20039;-71
2022/06/18 02:44:25;;;;;;;13.32;7.05;;;19.30;99.90;;;;;;5055929;28;20401;-72
2022/06/18 02:46:51;;;;;;;17.80;7.30;;;19.30;99.90;;;;;;5059234;28;20108;-71
2022/06/18 02:49:16;;;;;;;10.38;6.72;;;19.30;99.90;;;;;;5056128;28;20443;-71
2022/06/18 02:51:42;;;;;;;12.35;6.90;;;19.20;99.90;;;;;;5058326;28;20067;-71
2022/06/18 02:54:10;;;;;;;12.77;7.13;;;19.20;99.90;;;;;;5058195;28;20101;-72
2022/06/18 02:56:35;;;;;;;15.48;7.93;;;19.10;99.90;;;;;;5061685;28;20553;-72
2022/06/18 02:59:04;;;;;;;14.95;7.78;;;19.20;99.90;;;;;;5063182;28;20044;-71
2022/06/18 03:01:32;;;;;;;10.93;7.30;;;19.00;99.90;;;;;;5050412;28;20055;-71
2022/06/18 03:03:59;;;;;;;12.25;7.90;;;19.00;99.90;;;;;;5061331;28;20551;-71
2022/06/18 03:06:27;;;;;;;15.07;7.53;;;19.00;99.90;;;;;;5061169;28;20045;-71
2022/06/18 03:08:57;;;;;;;17.38;7.50;;;18.80;99.90;;;;;;5061761;28;20038;-71
2022/06/18 03:14:11;;;;;;;14.23;8.30;;;18.90;99.90;;;;;;5061201;28;20093;-71
2022/06/18 03:16:36;;;;;;;13.45;7.75;;;18.90;99.90;;;;;;5058658;28;20032;-71
2022/06/18 03:19:03;;;;;;;14.57;7.88;;;18.80;99.90;;;;;;5060711;28;20040;-71
2022/06/18 03:21:48;;;;;;;19.00;8.23;;;18.80;99.90;;;;;;5062430;28;20260;-72
2022/06/18 03:24:15;;;;;;;16.02;8.18;;;18.80;99.90;;;;;;5061216;28;20047;-72
2022/06/18 03:26:40;;;;;;;16.27;8.00;;;18.80;99.90;;;;;;5063040;28;20516;-71
2022/06/18 03:30:11;;;;;;;;;;;;;;;;;;;;;
2022/06/18 03:33:41;;;;;;;;;;;;;;;;;;;;;
2022/06/18 03:47:42;;;;;;;15.25;9.20;;;18.60;99.90;;;;;;5045339;22;20042;-65
2022/06/18 03:50:13;;;;;;;16.60;8.75;;;18.50;99.90;;;;;;5017659;28;20049;-64
2022/06/18 03:52:39;;;;;;;16.63;9.45;;;18.50;99.90;;;;;;5022589;28;20505;-65
2022/06/18 03:55:05;;;;;;;11.98;8.38;;;18.40;99.90;;;;;;5025110;28;20038;-66
2022/06/18 03:57:31;;;;;;;;;;;18.40;99.90;;;;;;5026119;28;20033;-65
2022/06/18 03:59:56;;;;;;;15.63;8.45;;;18.40;99.90;;;;;;5026142;28;19928;-65
2022/06/18 04:02:22;;;;;;;15.40;9.02;;;18.30;99.90;;;;;;4991519;28;20470;-66
2022/06/18 04:04:48;;;;;;;14.75;8.45;;;18.30;99.90;;;;;;5013813;28;20238;-65
2022/06/18 04:07:19;;;;;;;18.30;10.43;;;18.30;99.90;;;;;;5015879;28;20061;-66
2022/06/18 04:09:45;;;;;;;17.92;9.05;;;18.30;99.90;;;;;;5014058;28;20099;-65
2022/06/18 04:12:12;;;;;;;17.60;8.90;;;18.20;99.90;;;;;;5026956;28;21667;-65
2022/06/18 04:14:37;;;;;;;12.40;8.95;;;18.20;99.90;;;;;;5024349;28;20157;-65
2022/06/18 04:17:03;;;;;;;16.73;9.48;;;18.20;99.90;;;;;;5005550;28;20033;-65
2022/06/18 04:19:29;;;;;;;16.58;9.70;;;18.20;99.90;;;;;;5020018;28;20287;-64
2022/06/18 04:21:55;;;;;;;13.60;8.60;;;18.20;99.90;;;;;;5027873;28;20120;-66
2022/06/18 04:24:21;;;;;;;18.38;9.32;;;18.10;99.90;;;;;;5026128;28;20034;-66
2022/06/18 04:26:46;;;;;;;16.40;9.50;;;18.10;99.90;;;;;;5027191;28;20537;-64
2022/06/18 04:29:12;;;;;;;13.73;9.35;;;18.10;99.90;;;;;;5024765;28;20037;-65
2022/06/18 04:31:38;;;;;;;15.98;9.63;;;18.10;99.90;;;;;;5024165;28;20036;-64
2022/06/18 04:34:04;;;;;;;14.32;9.48;;;18.20;99.90;;;;;;5018797;28;20053;-65
2022/06/18 04:36:39;;;;;;;19.05;9.70;;;18.20;99.90;;;;;;5013693;28;20210;-65
2022/06/18 04:39:05;;;;;;;17.08;10.57;;;18.20;99.90;;;;;;5018408;28;20029;-64
2022/06/18 04:41:31;;;;;;;18.75;9.77;;;18.20;99.90;;;;;;5009021;28;20047;-65
2022/06/18 04:43:58;;;;;;;16.63;10.02;;;18.10;99.90;;;;;;5027611;28;20417;-64
2022/06/18 04:46:24;;;;;;;13.80;9.18;;;18.20;99.90;;;;;;5021986;28;20049;-65
2022/06/18 04:48:50;;;;;;;17.15;9.38;;;18.20;99.90;;;;;;5021942;28;20033;-65
2022/06/18 04:51:16;;;;;;;;;;;18.10;99.90;;;;;;5024945;28;20043;-66
2022/06/18 04:53:41;;;;;;;14.50;8.65;;;18.20;99.90;;;;;;5025726;28;20368;-65
2022/06/18 04:56:07;;;;;;;20.08;10.25;;;18.20;99.90;;;;;;5027014;28;20502;-65
2022/06/18 04:58:33;;;;;;;18.63;10.43;;;18.20;99.90;;;;;;5022634;28;20552;-65
2022/06/18 05:00:59;;;;;;;17.88;8.90;;;18.20;99.90;;;;;;5026590;28;20449;-65
2022/06/18 05:03:25;;;;;;;20.42;9.70;;;18.20;99.90;;;;;;5023516;28;20046;-64
2022/06/18 05:05:51;;;;;;;;;;;18.20;99.90;;;;;;5008369;28;20037;-65
2022/06/18 05:08:17;;;;;;;11.80;7.78;;;18.30;99.90;;;;;;5013771;28;19974;-66
2022/06/18 05:10:43;;;;;;;17.17;8.32;;;18.30;99.90;;;;;;5021528;28;20389;-65
2022/06/18 05:13:09;;;;;;;14.57;7.57;;;18.30;99.90;;;;;;5014299;28;20120;-65
2022/06/18 05:15:35;;;;;;;;;;;18.30;99.90;;;;;;5013691;28;20597;-65
2022/06/18 05:18:01;;;;;;;14.57;8.70;;;18.30;99.90;;;;;;5022076;28;19920;-65
2022/06/18 05:20:27;;;;;;;11.77;7.38;;;18.30;99.90;;;;;;5006723;28;20164;-65
2022/06/18 05:22:52;;;;;;;18.42;7.88;;;18.40;99.90;;;;;;5024731;28;20509;-66
2022/06/18 05:25:19;;;;;;;12.00;7.95;;;18.40;99.90;;;;;;5024286;28;20280;-65
2022/06/18 05:27:45;;;;;;;14.25;7.72;;;18.40;99.90;;;;;;5026260;28;20136;-65
2022/06/18 05:30:16;;;;;;;11.23;7.13;;;18.50;99.90;;;;;;5005398;28;20496;-66
2022/06/18 05:32:42;;;;;;;11.57;7.53;;;18.50;99.90;;;;;;5027372;28;20038;-65
2022/06/18 05:35:08;;;;;;;;;;;18.50;99.90;;;;;;5020848;28;20052;-65
2022/06/18 05:37:34;;;;;;;12.43;6.78;;;18.50;99.90;;;;;;5027177;28;19921;-65
2022/06/18 05:40:01;;;;;;;12.77;6.57;;;18.60;99.90;;;;;;5023435;28;20060;-65
2022/06/18 05:42:28;;;;;;;17.15;7.38;;;18.60;99.90;;;;;;5025733;28;20108;-64
2022/06/18 05:44:54;;;;;;;13.80;6.40;;;18.70;99.90;;;;;;5006320;28;20029;-66
2022/06/18 05:47:20;;;;;;;13.02;6.85;;;18.60;99.90;;;;;;5017783;28;20104;-65
2022/06/18 05:49:45;;;;;;;14.48;7.03;;;18.80;99.90;;;;;;5023807;28;20037;-66
2022/06/18 05:52:11;;;;;;;13.55;5.65;;;18.80;99.90;;;;;;5020716;28;20503;-66
2022/06/18 05:54:37;;;;;;;11.05;5.32;;;18.90;99.90;;;;;;5022044;28;20172;-66
2022/06/18 05:57:04;;;;;;;8.43;5.20;;;18.90;99.90;;;;;;5026282;28;20057;-66
2022/06/18 05:59:37;;;;;;;8.30;5.25;;;19.00;99.90;;;;;;5023075;28;20045;-66
2022/06/18 06:02:14;;;;;;;8.40;5.45;;;19.00;99.90;;;;;;5028173;28;20094;-66
2022/06/18 06:04:42;;;;;;;11.50;5.13;;;19.10;99.90;;;;;;5022254;28;20061;-65
2022/06/18 06:07:13;;;;;;;10.35;4.90;;;19.10;99.90;;;;;;5024855;28;20129;-65
2022/06/18 06:12:23;;;;;;;13.52;5.70;;;19.20;99.90;;;;;;5026599;28;20096;-66
2022/06/18 06:14:50;;;;;;;7.65;3.90;;;19.20;99.90;;;;;;5009247;28;20049;-65
2022/06/18 06:17:20;;;;;;;8.55;4.65;;;19.20;99.90;;;;;;5015996;28;20045;-65
2022/06/18 06:19:46;;;;;;;7.72;3.38;;;19.20;99.90;;;;;;5019490;28;20030;-66
2022/06/18 06:22:12;;;;;;;11.15;4.00;;;19.30;99.90;;;;;;5023332;28;20048;-65
2022/06/18 06:24:38;;;;;;;10.48;4.07;;;19.30;99.90;;;;;;5022713;28;20042;-65
2022/06/18 06:27:04;;;;;;;6.55;3.85;;;19.40;99.90;;;;;;5025451;28;20037;-66
2022/06/18 06:29:29;;;;;;;10.00;4.13;;;19.40;99.90;;;;;;5024222;28;20072;-65
2022/06/18 06:31:55;;;;;;;8.23;3.95;;;19.40;99.90;;;;;;5009530;28;20584;-66
2022/06/18 06:34:20;;;;;;;6.43;3.28;;;19.50;99.90;;;;;;5013142;28;20034;-64
2022/06/18 06:36:46;;;;;;;9.68;3.50;;;19.50;99.90;;;;;;5013355;28;20964;-66
2022/06/18 06:39:12;;;;;;;6.25;3.50;;;19.60;99.90;;;;;;5011169;28;22001;-65
2022/06/18 06:41:37;;;;;;;5.45;3.60;;;19.60;99.90;;;;;;5021059;28;20037;-65
2022/06/18 06:44:03;;;;;;;9.55;4.03;;;19.60;99.90;;;;;;5025212;28;20120;-65
2022/06/18 06:46:29;;;;;;;7.63;3.70;;;19.70;99.90;;;;;;5019205;28;20686;-65
2022/06/18 06:48:55;;;;;;;11.27;4.57;;;19.70;99.90;;;;;;5011189;28;20061;-65
2022/06/18 06:51:23;;;;;;;8.65;3.90;;;19.70;99.90;;;;;;5023543;28;20146;-66
2022/06/18 06:53:50;;;;;;;9.73;3.92;;;19.80;99.90;;;;;;5022289;28;20045;-67
2022/06/18 06:59:02;;;;;;;9.13;4.05;;;19.80;99.90;;;;;;5022068;28;20038;-65
2022/06/18 07:01:28;;;;;;;6.95;3.47;;;19.90;99.90;;;;;;5024925;28;20540;-65
2022/06/18 07:03:54;;;;;;;8.63;3.33;;;19.90;99.90;;;;;;4990603;28;20103;-65
2022/06/18 07:06:19;;;;;;;6.85;3.22;;;20.00;99.90;;;;;;4987389;28;21162;-65
2022/06/18 07:08:45;;;;;;;7.60;3.47;;;19.90;99.90;;;;;;5012461;28;21240;-66
2022/06/18 07:11:12;;;;;;;7.20;3.25;;;20.00;99.90;;;;;;5019620;28;20060;-65
2022/06/18 07:13:38;;;;;;;3.67;2.55;;;20.10;99.90;;;;;;5023348;28;20119;-65
2022/06/18 07:16:10;;;;;;;5.45;2.70;;;20.10;99.90;;;;;;5017359;28;20068;-66
2022/06/18 07:18:36;;;;;;;5.70;2.25;;;20.10;99.90;;;;;;5014782;28;20033;-69
2022/06/18 07:21:10;;;;;;;7.18;2.42;;;20.10;99.90;;;;;;5024654;28;20041;-66
2022/06/18 07:23:35;;;;;;;8.35;2.80;;;20.10;99.90;;;;;;5007785;28;20413;-65
2022/06/18 07:26:02;;;;;;;3.80;2.15;;;20.20;99.90;;;;;;5024754;28;20152;-65
2022/06/18 07:28:28;;;;;;;5.72;2.00;;;20.20;99.90;;;;;;5022279;28;20057;-64
2022/06/18 07:30:53;;;;;;;;;;;20.20;99.90;;;;;;5020955;28;20489;-65
2022/06/18 07:33:25;;;;;;;8.32;2.78;;;20.30;99.90;;;;;;4992227;28;19925;-66
2022/06/18 07:35:51;;;;;;;3.00;1.58;;;20.40;99.90;;;;;;5019331;28;20101;-65
2022/06/18 07:38:17;;;;;;;;;;;20.40;99.90;;;;;;5023633;28;20037;-65
2022/06/18 07:40:49;;;;;;;5.50;2.30;;;20.50;99.90;;;;;;5023057;28;19921;-65
2022/06/18 07:43:19;;;;;;;7.00;1.92;;;20.50;99.90;;;;;;5004821;28;20091;-65
2022/06/18 07:45:46;;;;;;;4.40;2.10;;;20.50;99.90;;;;;;5013120;28;20458;-65
2022/06/18 07:48:12;;;;;;;6.38;1.85;;;20.60;99.90;;;;;;5001881;28;20049;-65
2022/06/18 07:50:43;;;;;;;4.18;1.10;;;20.60;99.90;;;;;;5021834;28;20124;-66
2022/06/18 07:53:14;;;;;;;3.38;1.13;;;20.70;99.90;;;;;;5023530;28;20076;-65
2022/06/18 07:55:40;;;;;;;2.55;0.95;;;20.70;99.90;;;;;;5024921;28;20171;-65
2022/06/18 07:58:06;;;;;;;3.63;1.20;;;20.80;99.90;;;;;;5019582;28;20120;-66
2022/06/18 08:00:31;;;;;;;3.10;1.20;;;20.80;99.90;;;;;;5013883;28;20041;-65
2022/06/18 08:02:58;;;;;;;2.95;0.60;;;20.80;99.90;;;;;;5006253;28;20049;-65
2022/06/18 08:05:27;;;;;;;1.58;0.70;;;20.80;99.90;;;;;;5000398;28;21163;-65
2022/06/18 08:07:53;;;;;;;1.90;0.70;;;20.90;99.90;;;;;;5016189;28;20241;-64
2022/06/18 08:10:19;;;;;;;;;;;20.90;99.90;;;;;;5008525;28;20950;-65
2022/06/18 08:12:45;;;;;;;1.63;0.55;;;21.00;99.90;;;;;;5022076;28;19932;-65
2022/06/18 08:15:11;;;;;;;0.85;0.40;;;21.00;99.90;;;;;;5021186;28;20046;-66
2022/06/18 08:17:37;;;;;;;0.98;0.45;;;21.00;99.90;;;;;;5014796;28;20053;-65
2022/06/18 08:20:04;;;;;;;1.50;0.47;;;21.10;99.90;;;;;;5001217;28;20045;-66
2022/06/18 08:22:30;;;;;;;1.50;0.80;;;21.10;99.90;;;;;;5021514;28;20390;-65
2022/06/18 08:24:57;;;;;;;1.75;0.70;;;21.10;99.90;;;;;;5020924;28;20033;-65
2022/06/18 08:27:22;;;;;;;1.60;0.80;;;21.10;99.90;;;;;;5023794;28;20466;-65
2022/06/18 08:29:50;;;;;;;;;;;21.20;99.90;;;;;;5008429;28;20176;-66
2022/06/18 08:32:16;;;;;;;3.33;0.95;;;21.20;99.90;;;;;;5022572;28;19917;-65
2022/06/18 08:34:42;;;;;;;3.15;1.23;;;21.20;99.90;;;;;;5020375;28;20048;-66
2022/06/18 08:37:08;;;;;;;1.50;0.70;;;21.30;99.90;;;;;;5002981;28;24598;-65
2022/06/18 08:39:34;;;;;;;3.05;1.05;;;21.30;99.90;;;;;;4989494;28;20045;-65
2022/06/18 08:42:06;;;;;;;2.42;0.80;;;21.40;99.90;;;;;;5006980;28;20050;-65
2022/06/18 08:44:58;;;;;;;3.80;1.10;;;21.50;99.90;;;;;;5017925;28;20061;-64
2022/06/18 08:47:41;;;;;;;2.22;1.25;;;21.60;99.90;;;;;;5021297;28;20045;-65
2022/06/18 08:50:21;;;;;;;3.03;0.90;;;21.60;99.90;;;;;;5016859;28;20057;-65
2022/06/18 08:52:55;;;;;;;5.68;1.27;;;21.70;99.90;;;;;;5003088;28;20068;-65
2022/06/18 08:55:32;;;;;;;2.85;1.17;;;21.80;99.90;;;;;;5022206;28;20056;-65
2022/06/18 08:58:05;;;;;;;2.72;1.40;;;21.80;99.90;;;;;;5021556;28;20402;-66
2022/06/18 09:00:48;;;;;;;2.67;1.33;;;21.70;99.90;;;;;;5028378;28;20049;-65
2022/06/18 09:03:37;;;;;;;1.83;1.08;;;21.70;99.90;;;;;;5026061;28;20044;-64
2022/06/18 09:06:24;;;;;;;3.47;1.10;;;21.70;99.90;;;;;;4990650;28;22226;-64
2022/06/18 09:08:53;;;;;;;1.45;0.73;;;21.80;99.90;;;;;;4997490;28;22297;-66
2022/06/18 09:11:25;;;;;;;2.88;0.80;;;21.90;99.90;;;;;;5024173;28;20149;-64
2022/06/18 09:14:07;;;;;;;1.60;0.80;;;21.90;99.90;;;;;;5018623;28;20118;-64
2022/06/18 09:17:00;;;;;;;3.15;0.80;;;21.90;99.90;;;;;;5023151;28;20056;-65
2022/06/18 09:19:30;;;;;;;2.35;0.80;;;21.90;99.90;;;;;;5014364;28;20535;-65
2022/06/18 09:21:58;;;;;;;4.18;1.00;;;22.00;99.90;;;;;;5023911;28;20152;-64
2022/06/18 09:24:33;;;;;;;1.38;0.63;;;22.00;99.90;;;;;;5010457;28;20120;-65
2022/06/18 09:27:04;;;;;;;0.93;0.65;;;22.10;99.90;;;;;;5024406;28;20052;-65
2022/06/18 09:29:35;;;;;;;2.53;1.00;;;22.20;99.90;;;;;;5028494;28;20441;-65
2022/06/18 09:32:22;;;;;;;3.38;0.90;;;22.20;99.90;;;;;;5006978;28;20034;-65
2022/06/18 09:35:11;;;;;;;2.72;0.75;;;22.30;99.90;;;;;;5026674;28;20704;-65
2022/06/18 09:37:47;;;;;;;2.03;1.00;;;22.30;99.90;;;;;;5002777;28;20053;-65
2022/06/18 09:40:25;;;;;;;4.70;1.27;;;22.30;99.90;;;;;;5028001;28;20398;-64
2022/06/18 09:43:03;;;;;;;1.65;0.55;;;22.20;99.90;;;;;;5026949;28;20033;-65
2022/06/18 09:45:37;;;;;;;1.80;0.70;;;22.30;99.90;;;;;;5025931;28;20049;-65
2022/06/18 09:48:03;;;;;;;2.83;0.90;;;22.40;99.90;;;;;;5022355;28;20085;-66
2022/06/18 09:50:44;;;;;;;1.80;0.73;;;22.40;99.90;;;;;;5022957;28;20088;-65
2022/06/18 09:53:25;;;;;;;2.53;0.90;;;22.50;99.90;;;;;;5021206;28;20045;-66
2022/06/18 09:56:15;;;;;;;2.70;0.85;;;22.50;99.90;;;;;;5006327;28;20560;-64
2022/06/18 09:58:52;;;;;;;1.58;0.80;;;22.50;99.90;;;;;;5021880;28;20876;-64
2022/06/18 10:01:24;;;;;;;1.55;0.90;;;22.60;99.90;;;;;;5011354;28;20042;-64
2022/06/18 10:06:57;;;;;;;1.77;0.88;;;22.70;99.90;;;;;;5004024;28;21327;-65
2022/06/18 10:09:42;;;;;;;2.90;1.20;;;22.80;99.90;;;;;;4997560;28;22294;-65
2022/06/18 10:12:41;;;;;;;3.22;0.70;;;22.80;99.90;;;;;;5021774;28;20138;-65
2022/06/18 10:15:10;;;;;;;1.80;0.73;;;22.80;99.90;;;;;;5023394;28;20045;-65
2022/06/18 10:17:54;;;;;;;3.55;0.90;;;22.90;99.90;;;;;;5007257;28;20187;-65
2022/06/18 10:20:27;;;;;;;3.47;1.27;;;22.90;99.90;;;;;;5013176;28;20041;-65
2022/06/18 10:22:55;;;;;;;1.45;0.60;;;23.10;99.90;;;;;;5024655;28;20075;-64
2022/06/18 10:25:41;;;;;;;2.88;0.70;;;23.10;99.90;;;;;;5017788;28;20051;-65
2022/06/18 10:28:40;;;;;;;1.45;0.77;;;23.20;99.90;;;;;;5023117;28;20561;-65
2022/06/18 10:31:35;;;;;;;1.73;0.52;;;23.30;99.90;;;;;;5014780;28;20707;-65
2022/06/18 10:34:20;;;;;;;1.38;0.70;;;23.40;99.90;;;;;;4997534;28;20068;-66
2022/06/18 10:37:03;;;;;;;1.02;0.52;;;23.50;99.90;;;;;;4996718;28;21503;-64
2022/06/18 10:39:31;;;;;;;0.63;0.30;;;23.40;99.90;;;;;;4993328;28;20049;-64
2022/06/18 10:42:34;;;;;;;1.35;0.50;;;23.40;99.90;;;;;;5023971;28;20045;-65
2022/06/18 10:45:24;;;;;;;1.30;0.60;;;23.40;99.90;;;;;;5021334;28;20046;-64
2022/06/18 10:47:52;;;;;;;6.22;0.70;;;23.60;99.90;;;;;;5007461;28;20041;-64
2022/06/18 10:50:20;;;;;;;3.08;0.70;;;23.70;99.90;;;;;;5008704;28;20137;-65
2022/06/18 10:52:58;;;;;;;3.88;0.88;;;23.90;99.90;;;;;;5025514;28;20510;-66
2022/06/18 10:55:23;;;;;;;3.30;0.60;;;23.90;99.90;;;;;;5024320;28;20508;-66
2022/06/18 10:57:50;;;;;;;1.30;0.60;;;24.00;99.90;;;;;;5025303;28;20036;-65
2022/06/18 11:00:15;;;;;;;0.73;0.35;;;24.00;99.90;;;;;;5025038;28;20037;-65
2022/06/18 11:02:42;;;;;;;2.35;0.70;;;23.90;99.90;;;;;;5009119;28;20040;-65
2022/06/18 11:05:22;;;;;;;2.95;0.70;;;23.80;99.90;;;;;;5009973;28;20394;-65
2022/06/18 11:07:50;;;;;;;1.40;0.43;;;23.90;99.90;;;;;;5024977;28;20041;-65
2022/06/18 11:10:27;;;;;;;1.52;0.60;;;23.90;99.90;;;;;;5022091;28;20160;-64
2022/06/18 11:12:56;;;;;;;1.05;0.50;;;23.90;99.90;;;;;;5025462;28;20041;-64
2022/06/18 11:15:40;;;;;;;2.33;0.50;;;23.90;99.90;;;;;;5007451;28;20642;-65
2022/06/18 11:18:24;;;;;;;1.88;0.40;;;24.00;99.90;;;;;;5014707;28;20033;-64
2022/06/18 11:20:58;;;;;;;1.30;0.40;;;24.20;99.90;;;;;;5023507;28;20136;-65
2022/06/18 11:23:25;;;;;;;4.20;0.55;;;24.30;99.90;;;;;;5023075;28;20040;-65
2022/06/18 11:25:54;;;;;;;1.92;0.70;;;24.30;99.90;;;;;;5019856;28;20059;-66
2022/06/18 11:28:32;;;;;;;1.30;0.57;;;24.40;99.90;;;;;;4997960;28;20128;-65
2022/06/18 11:30:59;;;;;;;2.17;0.70;;;24.40;99.90;;;;;;5010967;28;20048;-65
2022/06/18 11:33:39;;;;;;;1.10;0.47;;;24.40;99.90;;;;;;5015162;28;20892;-65
2022/06/18 11:36:14;;;;;;;3.08;0.45;;;24.40;99.90;;;;;;5004737;28;20091;-66
2022/06/18 11:38:49;;;;;;;4.03;0.90;;;24.40;99.90;;;;;;5009933;28;20033;-65
2022/06/18 11:41:28;;;;;;;3.38;0.63;;;24.50;99.90;;;;;;5014552;28;20637;-64
2022/06/18 11:44:00;;;;;;;2.17;0.40;;;24.50;99.90;;;;;;5023137;28;20577;-66
2022/06/18 11:46:33;;;;;;;1.85;0.65;;;24.50;99.90;;;;;;5016769;28;20490;-65
2022/06/18 11:49:11;;;;;;;2.38;0.82;;;24.60;99.90;;;;;;5011135;28;20049;-65
2022/06/18 11:51:46;;;;;;;0.82;0.60;;;24.60;99.90;;;;;;5017451;28;20053;-66
2022/06/18 11:54:24;;;;;;;2.50;0.60;;;24.60;99.90;;;;;;5017864;28;20342;-65
2022/06/18 11:56:59;;;;;;;3.03;0.57;;;24.70;99.90;;;;;;5022325;28;20080;-64
2022/06/18 11:59:53;;;;;;;1.50;0.40;;;24.70;99.90;;;;;;5016419;28;20037;-66
2022/06/18 12:02:51;;;;;;;1.83;0.50;;;24.70;99.90;;;;;;4988854;28;20092;-66
2022/06/18 12:05:34;;;;;;;2.47;0.60;;;24.70;99.90;;;;;;5016963;28;20045;-66
2022/06/18 12:08:02;;;;;;;1.17;0.52;;;24.70;99.90;;;;;;4999989;28;20614;-64
2022/06/18 12:10:46;;;;;;;1.77;0.50;;;24.60;99.90;;;;;;5006470;28;20474;-66
2022/06/18 12:13:26;;;;;;;4.13;0.70;;;24.60;99.90;;;;;;5018422;28;20046;-66
2022/06/18 12:16:10;;;;;;;1.42;0.50;;;24.80;99.90;;;;;;5013637;28;20127;-66
2022/06/18 12:18:51;;;;;;;2.75;0.57;;;24.80;99.90;;;;;;5022989;28;20047;-66
2022/06/18 12:21:33;;;;;;;2.20;0.60;;;24.60;99.90;;;;;;5007733;28;20384;-64
2022/06/18 12:24:14;;;;;;;1.88;0.70;;;24.60;99.90;;;;;;5023144;28;20118;-65
2022/06/18 12:26:52;;;;;;;4.70;1.17;;;24.50;99.90;;;;;;5004805;28;20037;-65
2022/06/18 12:29:44;;;;;;;1.75;0.60;;;24.40;99.90;;;;;;5026204;28;20127;-66
2022/06/18 12:32:41;;;;;;;2.88;0.90;;;24.40;99.90;;;;;;5025134;28;20638;-66
2022/06/18 12:35:25;;;;;;;3.72;0.77;;;24.40;99.90;;;;;;5020921;28;20057;-66
2022/06/18 12:38:05;;;;;;;1.35;0.60;;;24.40;99.90;;;;;;5024891;28;20053;-66
2022/06/18 12:40:40;;;;;;;3.28;0.80;;;24.50;99.90;;;;;;5022074;28;20509;-66
2022/06/18 12:43:15;;;;;;;2.58;0.73;;;24.60;99.90;;;;;;5004748;28;20095;-66
2022/06/18 12:45:58;;;;;;;2.70;0.65;;;24.60;99.90;;;;;;5025966;28;20037;-71
2022/06/18 12:48:34;;;;;;;3.10;0.80;;;24.60;99.90;;;;;;5006096;28;20044;-65
2022/06/18 12:51:12;;;;;;;2.78;0.60;;;24.60;99.90;;;;;;5008136;28;20103;-66
2022/06/18 12:54:11;;;;;;;5.22;1.02;;;24.60;99.90;;;;;;5016800;28;20465;-66
2022/06/18 12:57:00;;;;;;;6.43;0.90;;;24.50;98.30;;;;;;5026569;28;20073;-65
2022/06/18 12:59:31;;;;;;;2.63;0.70;;;24.20;99.90;;;;;;5024462;28;20041;-66
2022/06/18 13:02:16;;;;;;;3.10;0.75;;;24.10;99.90;;;;;;5021958;28;20043;-66
2022/06/18 13:05:07;;;;;;;4.68;0.90;;;24.00;99.90;;;;;;4994110;28;20081;-65
2022/06/18 13:07:57;;;;;;;4.20;0.95;;;23.90;99.90;;;;;;5022784;28;20478;-66
2022/06/18 13:11:01;;;;;;;5.93;0.68;;;23.80;99.90;;;;;;5007740;28;20061;-66
2022/06/18 13:13:44;;;;;;;4.90;1.00;;;23.70;99.90;;;;;;5021942;28;20475;-67
2022/06/18 13:16:26;;;;;;;3.78;0.80;;;23.50;99.90;;;;;;5021463;28;20057;-65
2022/06/18 13:19:07;;;;;;;4.78;0.88;;;23.30;99.90;;;;;;5010471;28;20064;-65
2022/06/18 13:21:32;;;;;;;5.57;1.10;;;23.20;99.90;;;;;;5022438;28;20092;-64
2022/06/18 13:30:08;;;;;;;3.90;0.95;;;23.00;99.90;;;;;;5021465;28;20490;-66
2022/06/18 13:32:48;;;;;;;7.25;1.10;;;23.00;99.90;;;;;;5019360;28;20502;-65
2022/06/18 13:35:48;;;;;;;6.95;1.33;;;23.00;99.90;;;;;;5024150;28;20049;-66
2022/06/18 13:38:32;;;;;;;7.90;1.05;;;22.80;99.90;;;;;;4988898;28;20217;-64
2022/06/18 13:41:23;;;;;;;3.20;0.52;;;22.80;99.90;;;;;;5022547;28;20050;-65
2022/06/18 13:44:04;;;;;;;8.10;1.30;;;22.90;99.90;;;;;;5007854;28;20041;-65
2022/06/18 13:46:55;;;;;;;5.22;0.75;;;22.80;99.90;;;;;;5023786;28;20179;-65